createdAt,value
2022-10-06T00:01:11.043Z,83.40
2022-10-06T00:03:43.178Z,82.87
2022-10-06T00:06:16.340Z,83.24
2022-10-06T00:08:45.435Z,83.26
2022-10-06T00:11:14.472Z,83.54
2022-10-06T00:13:41.478Z,83.69
2022-10-06T00:16:17.726Z,83.69
2022-10-06T00:18:44.775Z,83.77
2022-10-06T00:21:11.470Z,83.60
2022-10-06T00:23:37.976Z,83.44
2022-10-06T00:26:04.647Z,83.41
2022-10-06T00:28:31.655Z,83.54
2022-10-06T00:31:02.364Z,83.30
2022-10-06T00:33:28.940Z,83.34
2022-10-06T00:35:57.520Z,83.16
2022-10-06T00:38:25.297Z,83.41
2022-10-06T00:40:51.868Z,83.64
2022-10-06T00:43:46.607Z,83.46
2022-10-06T00:46:23.746Z,83.67
2022-10-06T00:49:27.780Z,83.47
2022-10-06T00:51:59.545Z,83.49
2022-10-06T00:54:27.202Z,83.77
2022-10-06T00:56:58.682Z,84.04
2022-10-06T00:59:25.286Z,83.86
2022-10-06T01:02:11.588Z,84.02
2022-10-06T01:04:51.958Z,83.90
2022-10-06T01:07:20.834Z,84.19
2022-10-06T01:09:48.438Z,83.94
2022-10-06T01:12:16.118Z,84.04
2022-10-06T01:14:42.853Z,84.08
2022-10-06T01:17:16.427Z,83.96
2022-10-06T01:20:08.436Z,84.00
2022-10-06T01:22:38.890Z,84.01
2022-10-06T01:25:08.158Z,84.13
2022-10-06T01:27:37.061Z,83.98
2022-10-06T01:30:10.648Z,83.90
2022-10-06T01:32:39.089Z,83.99
2022-10-06T01:35:09.818Z,84.16
2022-10-06T01:37:36.848Z,84.03
2022-10-06T01:40:10.491Z,84.06
2022-10-06T01:42:44.753Z,84.07
2022-10-06T01:45:11.337Z,84.17
2022-10-06T01:47:37.797Z,84.04
2022-10-06T01:50:06.084Z,84.08
2022-10-06T01:52:32.836Z,84.26
2022-10-06T01:54:59.345Z,84.29
2022-10-06T01:57:26.107Z,84.13
2022-10-06T01:59:54.972Z,84.10
2022-10-06T02:02:23.458Z,84.23
2022-10-06T02:05:03.038Z,84.18
2022-10-06T02:07:29.757Z,84.40
2022-10-06T02:09:56.210Z,84.46
2022-10-06T02:12:23.537Z,84.56
2022-10-06T02:14:54.826Z,84.71
2022-10-06T02:17:22.483Z,84.63
2022-10-06T02:19:50.925Z,84.46
2022-10-06T02:22:17.549Z,84.71
2022-10-06T02:24:44.009Z,84.71
2022-10-06T02:27:10.657Z,84.73
2022-10-06T02:29:37.232Z,84.59
2022-10-06T02:32:05.332Z,84.70
2022-10-06T02:34:32.623Z,84.78
2022-10-06T02:36:59.313Z,84.64
2022-10-06T02:39:25.805Z,84.82
2022-10-06T02:41:52.324Z,84.84
2022-10-06T02:44:19.031Z,84.78
2022-10-06T02:46:47.667Z,85.14
2022-10-06T02:49:14.268Z,85.06
2022-10-06T02:51:40.745Z,84.88
2022-10-06T02:54:07.315Z,84.85
2022-10-06T02:56:34.458Z,85.09
2022-10-06T02:59:00.937Z,85.32
2022-10-06T03:01:30.251Z,85.16
2022-10-06T03:04:08.327Z,85.13
2022-10-06T03:06:34.814Z,85.17
2022-10-06T03:09:09.128Z,85.48
2022-10-06T03:11:39.912Z,85.43
2022-10-06T03:14:07.149Z,85.21
2022-10-06T03:16:35.379Z,85.42
2022-10-06T03:19:03.018Z,85.44
2022-10-06T03:21:32.583Z,85.52
2022-10-06T03:24:00.114Z,85.66
2022-10-06T03:26:30.875Z,85.61
2022-10-06T03:29:05.910Z,85.65
2022-10-06T03:31:35.623Z,85.63
2022-10-06T03:34:03.138Z,85.71
2022-10-06T03:36:32.885Z,85.67
2022-10-06T03:39:06.030Z,85.47
2022-10-06T03:41:35.875Z,85.63
2022-10-06T03:44:09.399Z,85.74
2022-10-06T03:46:44.443Z,85.72
2022-10-06T03:49:17.290Z,85.99
2022-10-06T03:51:50.439Z,86.27
2022-10-06T03:54:22.056Z,85.77
2022-10-06T03:56:49.710Z,86.20
2022-10-06T03:59:18.839Z,86.07
2022-10-06T04:01:55.517Z,86.14
2022-10-06T04:04:31.117Z,86.05
2022-10-06T04:07:04.618Z,86.07
2022-10-06T04:09:31.363Z,86.77
2022-10-06T04:11:57.989Z,86.34
2022-10-06T04:14:25.010Z,86.55
2022-10-06T04:16:51.785Z,86.37
2022-10-06T04:19:22.663Z,86.70
2022-10-06T04:21:52.251Z,86.79
2022-10-06T04:24:23.470Z,86.75
2022-10-06T04:26:51.853Z,87.01
2022-10-06T04:29:20.035Z,86.88
2022-10-06T04:31:55.337Z,86.96
2022-10-06T04:34:27.624Z,87.62
2022-10-06T04:36:54.366Z,87.24
2022-10-06T04:39:20.903Z,87.36
2022-10-06T04:41:51.353Z,87.86
2022-10-06T04:44:22.628Z,88.04
2022-10-06T04:46:49.779Z,87.88
2022-10-06T04:49:20.213Z,88.04
2022-10-06T04:51:48.883Z,88.34
2022-10-06T04:54:15.843Z,88.57
2022-10-06T04:56:42.436Z,88.84
2022-10-06T04:59:09.631Z,88.90
2022-10-06T05:01:38.748Z,89.08
2022-10-06T05:04:09.339Z,89.12
2022-10-06T05:06:39.179Z,89.16
2022-10-06T05:09:08.972Z,89.07
2022-10-06T05:11:37.672Z,89.30
2022-10-06T05:14:06.993Z,89.17
2022-10-06T05:16:39.759Z,89.54
2022-10-06T05:19:07.581Z,89.50
2022-10-06T05:21:35.630Z,89.68
2022-10-06T05:24:02.959Z,89.51
2022-10-06T05:26:31.693Z,89.62
2022-10-06T05:28:59.457Z,89.42
2022-10-06T05:31:28.761Z,89.73
2022-10-06T05:33:59.256Z,89.88
2022-10-06T05:36:29.453Z,90.19
2022-10-06T05:38:58.216Z,90.06
2022-10-06T05:41:30.924Z,90.08
2022-10-06T05:44:00.223Z,89.95
2022-10-06T05:46:34.473Z,89.89
2022-10-06T05:49:03.622Z,89.81
2022-10-06T05:51:33.549Z,90.17
2022-10-06T05:54:04.067Z,90.00
2022-10-06T05:56:38.089Z,90.14
2022-10-06T05:59:05.481Z,89.85
2022-10-06T06:01:41.347Z,90.08
2022-10-06T06:04:13.478Z,90.21
2022-10-06T06:06:46.108Z,90.08
2022-10-06T06:09:21.064Z,90.31
2022-10-06T06:11:52.374Z,90.46
2022-10-06T06:14:43.172Z,90.20
2022-10-06T06:17:12.381Z,90.02
2022-10-06T06:19:40.117Z,90.31
2022-10-06T06:22:07.548Z,90.12
2022-10-06T06:24:36.928Z,90.25
2022-10-06T06:27:03.571Z,90.63
2022-10-06T06:29:29.983Z,90.33
2022-10-06T06:31:56.519Z,90.40
2022-10-06T06:34:24.969Z,89.94
2022-10-06T06:36:54.463Z,90.23
2022-10-06T06:39:21.031Z,90.34
2022-10-06T06:41:49.469Z,90.25
2022-10-06T06:44:36.236Z,90.68
2022-10-06T06:47:15.607Z,90.64
2022-10-06T06:49:47.542Z,90.94
2022-10-06T06:52:15.944Z,91.03
2022-10-06T06:54:42.871Z,91.14
2022-10-06T06:57:13.456Z,91.04
2022-10-06T06:59:40.280Z,90.68
2022-10-06T07:02:11.221Z,91.11
2022-10-06T07:04:40.860Z,90.80
2022-10-06T07:07:10.890Z,90.63
2022-10-06T07:09:37.780Z,90.69
2022-10-06T07:12:10.856Z,90.50
2022-10-06T07:14:59.636Z,90.49
2022-10-06T07:17:53.245Z,90.85
2022-10-06T07:20:39.403Z,90.33
2022-10-06T07:23:24.676Z,90.11
2022-10-06T07:25:52.801Z,90.26
2022-10-06T07:28:20.627Z,90.34
2022-10-06T07:30:47.421Z,90.38
2022-10-06T07:33:18.532Z,90.15
2022-10-06T07:35:46.282Z,89.93
2022-10-06T07:38:14.992Z,89.69
2022-10-06T07:40:50.643Z,89.15
2022-10-06T07:43:29.407Z,88.90
2022-10-06T07:46:18.647Z,89.19
2022-10-06T07:48:52.825Z,88.88
2022-10-06T07:51:19.735Z,88.26
2022-10-06T07:53:50.291Z,88.48
2022-10-06T07:56:49.034Z,87.56
2022-10-06T07:59:15.521Z,87.52
2022-10-06T08:01:43.885Z,87.32
2022-10-06T08:04:10.518Z,87.19
2022-10-06T08:06:37.937Z,86.67
2022-10-06T08:09:05.170Z,86.69
2022-10-06T08:11:39.065Z,85.83
2022-10-06T08:14:05.584Z,86.12
2022-10-06T08:16:32.145Z,85.97
2022-10-06T08:18:58.828Z,85.69
2022-10-06T08:21:33.091Z,85.69
2022-10-06T08:24:00.306Z,86.13
2022-10-06T08:26:28.622Z,86.12
2022-10-06T08:28:59.266Z,86.46
2022-10-06T08:31:25.704Z,86.33
2022-10-06T08:33:56.733Z,86.24
2022-10-06T08:36:31.905Z,86.20
2022-10-06T08:39:00.251Z,85.87
2022-10-06T08:41:28.481Z,85.58
2022-10-06T08:44:18.034Z,85.51
2022-10-06T08:46:54.747Z,85.71
2022-10-06T08:49:24.864Z,85.44
2022-10-06T08:52:17.562Z,84.71
2022-10-06T08:55:13.976Z,84.81
2022-10-06T08:58:17.948Z,84.45
2022-10-06T09:00:49.070Z,84.73
2022-10-06T09:03:22.601Z,84.48
2022-10-06T09:06:02.826Z,84.04
2022-10-06T09:08:55.105Z,82.80
2022-10-06T09:12:06.848Z,82.44
2022-10-06T09:14:36.935Z,81.56
2022-10-06T09:17:13.270Z,81.99
2022-10-06T09:19:45.575Z,81.36
2022-10-06T09:22:21.555Z,81.38
2022-10-06T09:24:51.180Z,82.16
2022-10-06T09:27:33.281Z,82.06
2022-10-06T09:30:03.905Z,82.30
2022-10-06T09:32:30.992Z,81.56
2022-10-06T09:35:03.907Z,82.05
2022-10-06T09:37:56.358Z,82.40
2022-10-06T09:40:37.237Z,82.05
2022-10-06T09:43:16.538Z,81.42
2022-10-06T09:45:43.353Z,81.34
2022-10-06T09:48:26.639Z,78.89
2022-10-06T09:51:08.021Z,78.81
2022-10-06T09:53:37.657Z,79.42
2022-10-06T09:56:13.894Z,79.12
2022-10-06T09:58:55.809Z,77.28
2022-10-06T10:01:29.317Z,77.48
2022-10-06T10:04:20.897Z,77.72
2022-10-06T10:06:48.617Z,76.71
2022-10-06T10:09:34.718Z,76.96
2022-10-06T10:12:24.311Z,76.92
2022-10-06T10:14:58.577Z,75.84
2022-10-06T10:17:47.661Z,76.04
2022-10-06T10:20:38.186Z,74.68
2022-10-06T10:23:26.030Z,74.81
2022-10-06T10:26:07.875Z,71.61
2022-10-06T10:28:51.525Z,70.47
2022-10-06T10:31:38.593Z,67.75
2022-10-06T10:34:24.906Z,67.11
2022-10-06T10:37:04.273Z,65.97
2022-10-06T10:39:47.009Z,64.13
2022-10-06T10:42:55.059Z,65.87
2022-10-06T10:45:35.343Z,66.23
2022-10-06T10:48:12.380Z,66.53
2022-10-06T10:50:48.207Z,66.21
2022-10-06T10:53:31.245Z,66.92
2022-10-06T10:56:00.050Z,65.02
2022-10-06T10:58:36.637Z,66.55
2022-10-06T11:01:28.850Z,66.14
2022-10-06T11:03:57.734Z,65.99
2022-10-06T11:07:15.141Z,65.62
2022-10-06T11:10:14.703Z,64.49
2022-10-06T11:13:03.613Z,62.75
2022-10-06T11:16:14.168Z,62.58
2022-10-06T11:18:59.209Z,59.44
2022-10-06T11:21:57.162Z,59.56
2022-10-06T11:24:33.759Z,60.64
2022-10-06T11:27:35.831Z,60.61
2022-10-06T11:30:25.097Z,60.46
2022-10-06T11:33:09.449Z,60.76
2022-10-06T11:35:42.638Z,60.34
2022-10-06T11:38:15.818Z,59.98
2022-10-06T11:40:49.363Z,59.61
2022-10-06T11:43:34.330Z,60.96
2022-10-06T11:46:18.317Z,61.59
2022-10-06T11:48:46.091Z,62.34
2022-10-06T11:51:32.647Z,62.81
2022-10-06T11:53:59.343Z,61.66
2022-10-06T11:56:37.420Z,60.65
2022-10-06T11:59:11.716Z,59.68
2022-10-06T12:01:43.388Z,59.42
2022-10-06T12:04:09.939Z,58.71
2022-10-06T12:06:45.620Z,58.51
2022-10-06T12:09:38.133Z,59.57
2022-10-06T12:12:07.568Z,59.45
2022-10-06T12:17:57.676Z,58.97
2022-10-06T12:20:37.323Z,57.78
2022-10-06T12:23:42.889Z,56.74
2022-10-06T12:26:28.332Z,57.68
2022-10-06T12:29:19.896Z,58.54
2022-10-06T12:31:53.660Z,58.91
2022-10-06T12:34:39.044Z,58.89
2022-10-06T12:37:33.782Z,58.89
2022-10-06T12:40:37.766Z,58.89
2022-10-06T12:43:20.299Z,58.89
2022-10-06T12:46:15.715Z,56.36
2022-10-06T12:49:21.646Z,55.19
2022-10-06T12:51:52.346Z,43.96
2022-10-06T12:54:27.553Z,-1.00
2022-10-06T12:57:19.519Z,-1.00
2022-10-06T12:59:47.141Z,-1.00
2022-10-06T13:02:19.459Z,-1.00
2022-10-06T13:05:09.479Z,-1.00
2022-10-06T13:07:55.826Z,-1.00
2022-10-06T13:10:23.042Z,-1.00
2022-10-06T13:12:52.023Z,-1.00
2022-10-06T13:15:21.628Z,-1.00
2022-10-06T13:18:14.452Z,-1.00
2022-10-06T13:20:49.201Z,-1.00
2022-10-06T13:23:28.402Z,-1.00
2022-10-06T13:26:00.634Z,-1.00
2022-10-06T13:28:44.006Z,-1.00
2022-10-06T13:31:34.739Z,-1.00
2022-10-06T13:34:04.735Z,-1.00
2022-10-06T13:36:38.088Z,-1.00
2022-10-06T13:39:24.799Z,-1.00
2022-10-06T13:42:02.774Z,-1.00
2022-10-06T13:44:44.469Z,-1.00
2022-10-06T13:47:19.520Z,-1.00
2022-10-06T13:50:02.978Z,-1.00
2022-10-06T13:52:48.001Z,-1.00
2022-10-06T13:55:30.895Z,-1.00
2022-10-06T13:58:06.844Z,-1.00
2022-10-06T14:00:57.059Z,-1.00
2022-10-06T14:03:27.842Z,-1.00
2022-10-06T14:06:10.843Z,-1.00
2022-10-06T14:08:37.952Z,-1.00
2022-10-06T14:11:07.447Z,-1.00
2022-10-06T14:13:51.550Z,-1.00
2022-10-06T14:16:27.849Z,-1.00
2022-10-06T14:18:59.406Z,-1.00
2022-10-06T14:21:35.956Z,-1.00
2022-10-06T14:24:09.340Z,-1.00
2022-10-06T14:26:39.234Z,-1.00
2022-10-06T14:29:05.814Z,-1.00
2022-10-06T14:31:34.204Z,-1.00
2022-10-06T14:34:14.021Z,-1.00
2022-10-06T14:36:52.911Z,-1.00
2022-10-06T14:39:27.960Z,-1.00
2022-10-06T14:41:58.566Z,-1.00
2022-10-06T14:44:25.066Z,-1.00
2022-10-06T14:46:58.681Z,-1.00
2022-10-06T14:49:27.069Z,-1.00
2022-10-06T14:51:55.886Z,-1.00
2022-10-06T14:54:22.490Z,-1.00
2022-10-06T14:56:52.849Z,-1.00
2022-10-06T14:59:20.705Z,-1.00
2022-10-06T15:01:49.224Z,-1.00
2022-10-06T15:04:27.173Z,-1.00
2022-10-06T15:07:13.095Z,-1.00
2022-10-06T15:09:39.691Z,-1.00
2022-10-06T15:12:06.083Z,-1.00
2022-10-06T15:14:34.391Z,-1.00
2022-10-06T15:17:00.825Z,-1.00
2022-10-06T15:19:27.600Z,-1.00
2022-10-06T15:21:54.019Z,-1.00
2022-10-06T15:24:25.139Z,-1.00
2022-10-06T15:27:14.762Z,-1.00
2022-10-06T15:29:41.911Z,-1.00
2022-10-06T15:32:08.976Z,-1.00
2022-10-06T15:34:36.935Z,-1.00
2022-10-06T15:37:04.795Z,-1.00
2022-10-06T15:39:48.653Z,-1.00
2022-10-06T15:42:18.157Z,-1.00
2022-10-06T15:44:44.605Z,-1.00
2022-10-06T15:47:31.167Z,-1.00
2022-10-06T15:49:57.711Z,-1.00
